Time;durP1;ratioP1;P1;durP2;ratioP2;P2;SDS_P1;SDS_P2;PMS_P1;PMS_P2;Temp;Humidity;BMP_temperature;BMP_pressure;BME280_temperature;BME280_humidity;BME280_pressure;Samples;Min_cycle;Max_cycle;Signal;HPM_P1;HPM_P2
2022/01/22 07:58:58;;;;;;;37.78;23.52;;;;;;;5.06;100.00;103294.69;5259116;28;20400;-72
2022/01/22 08:01:30;;;;;;;30.70;21.17;;;;;;;5.16;100.00;103295.22;5258658;28;20036;-73
2022/01/22 08:04:01;;;;;;;38.53;22.08;;;;;;;5.27;100.00;103285.63;5259137;28;20025;-72
2022/01/22 08:06:32;;;;;;;39.10;23.67;;;;;;;5.23;100.00;103290.66;5258540;28;20025;-75
2022/01/22 08:09:05;;;;;;;29.02;22.08;;;;;;;5.29;100.00;103294.56;5259021;28;20029;-76
2022/01/22 08:11:36;;;;;;;28.90;20.02;;;;;;;5.38;100.00;103292.53;5257331;28;20025;-77
2022/01/22 08:14:10;;;;;;;29.92;20.83;;;;;;;5.34;100.00;103286.56;5258970;28;20321;-75
2022/01/22 08:16:45;;;;;;;33.80;22.25;;;;;;;5.40;100.00;103291.28;5257917;28;20025;-74
2022/01/22 08:19:17;;;;;;;29.10;19.38;;;;;;;5.56;100.00;103295.66;5257295;28;20025;-76
2022/01/22 08:21:49;;;;;;;28.50;20.88;;;;;;;5.53;99.79;103290.56;5257408;28;20067;-78
2022/01/22 08:24:24;;;;;;;27.15;18.95;;;;;;;5.60;99.38;103297.00;5258192;28;20044;-79
2022/01/22 08:29:45;;;;;;;36.25;20.02;;;;;;;5.80;100.00;103299.94;5262485;28;19913;-76
2022/01/22 08:37:38;;;;;;;25.00;18.77;;;;;;;6.01;97.07;103298.25;5255915;28;20399;-74
2022/01/22 08:40:10;;;;;;;24.00;17.17;;;;;;;5.95;96.66;103291.59;5258187;28;20037;-71
2022/01/22 08:42:42;;;;;;;27.23;17.25;;;;;;;5.96;96.88;103292.47;5258404;28;20017;-71
2022/01/22 08:45:13;;;;;;;26.25;17.08;;;;;;;5.90;96.33;103291.31;5258434;28;20469;-69
2022/01/22 08:47:44;;;;;;;25.25;15.93;;;;;;;5.91;96.39;103283.94;5257015;28;20441;-69
2022/01/22 08:50:16;;;;;;;25.73;17.38;;;;;;;5.87;96.61;103288.97;5258470;28;20422;-70
2022/01/22 08:52:47;;;;;;;24.50;17.25;;;;;;;5.89;96.37;103290.47;5258017;28;20032;-71
2022/01/22 08:55:18;;;;;;;24.48;16.27;;;;;;;5.95;96.47;103293.50;5257173;28;20041;-70
2022/01/22 08:57:51;;;;;;;20.92;16.13;;;;;;;5.97;96.17;103292.25;5257542;28;20069;-73
2022/01/22 09:00:22;;;;;;;19.63;16.08;;;;;;;6.16;97.27;103295.38;5257598;28;20384;-77
2022/01/22 09:02:54;;;;;;;22.45;17.13;;;;;;;6.10;95.84;103306.13;5256738;28;20021;-82
2022/01/22 09:05:31;;;;;;;18.67;15.45;;;;;;;6.09;95.78;103314.63;5257136;28;20028;-73
2022/01/22 09:08:04;;;;;;;22.92;15.45;;;;;;;6.10;95.26;103321.81;5256048;28;20029;-73
2022/01/22 09:10:35;;;;;;;19.38;16.50;;;;;;;6.10;95.33;103322.66;5243827;28;20056;-73
2022/01/22 09:13:06;;;;;;;22.05;16.15;;;;;;;6.13;95.49;103328.84;5243591;28;20130;-76
2022/01/22 09:15:39;;;;;;;22.58;16.08;;;;;;;6.12;95.18;103329.91;5243029;28;20033;-74
2022/01/22 09:18:11;;;;;;;22.25;15.20;;;;;;;6.08;95.46;103324.78;5243372;28;20041;-74
2022/01/22 09:20:55;;;;;;;26.98;15.43;;;;;;;6.05;95.39;103329.84;5243188;28;20030;-74
2022/01/22 09:23:27;;;;;;;23.15;15.70;;;;;;;6.10;95.65;103333.69;5226369;28;20034;-75
2022/01/22 09:25:59;;;;;;;20.40;15.80;;;;;;;6.12;96.03;103335.41;5238603;28;20029;-72
2022/01/22 09:28:32;;;;;;;18.65;15.57;;;;;;;6.16;95.86;103333.94;5243227;28;20396;-75
2022/01/22 09:31:04;;;;;;;19.13;16.77;;;;;;;6.17;95.49;103331.00;5243458;28;20151;-77
2022/01/22 09:33:35;;;;;;;23.08;17.10;;;;;;;6.18;95.35;103332.69;5243822;28;20025;-78
2022/01/22 09:36:06;;;;;;;26.58;16.90;;;;;;;6.17;95.28;103324.66;5242052;28;20022;-75
2022/01/22 09:38:38;;;;;;;23.83;16.27;;;;;;;6.18;95.44;103320.81;5242871;28;20473;-73
2022/01/22 09:41:09;;;;;;;19.90;15.40;;;;;;;6.20;95.51;103332.50;5242705;28;20025;-72
2022/01/22 09:43:40;;;;;;;23.60;16.23;;;;;;;6.20;95.30;103349.03;5241220;28;20035;-67
2022/01/22 09:46:11;;;;;;;21.90;18.02;;;;;;;6.15;95.65;103349.63;5243405;28;20076;-75
2022/01/22 09:48:45;;;;;;;23.63;16.50;;;;;;;6.27;95.57;103352.72;5243148;28;20100;-72
2022/01/22 09:51:17;;;;;;;21.80;16.63;;;;;;;6.26;95.06;103362.00;5242380;28;20460;-70
2022/01/22 09:53:48;;;;;;;21.88;16.98;;;;;;;6.31;95.03;103360.38;5242941;28;20164;-68
2022/01/22 09:56:23;;;;;;;22.02;16.25;;;;;;;6.29;94.95;103361.63;5243503;28;20037;-78
2022/01/22 09:58:54;;;;;;;26.90;17.65;;;;;;;6.29;95.14;103356.97;5242455;28;20068;-78
2022/01/22 10:01:31;;;;;;;26.20;16.58;;;;;;;6.29;95.14;103358.88;5244020;28;20018;-76
2022/01/22 10:04:06;;;;;;;25.08;16.63;;;;;;;6.36;95.42;103359.75;5242530;28;20048;-74
2022/01/22 10:06:50;;;;;;;25.35;15.82;;;;;;;6.34;95.04;103356.38;5243522;28;20330;-79
2022/01/22 10:09:26;;;;;;;23.13;16.60;;;;;;;6.36;94.99;103356.16;5243247;28;20044;-73
2022/01/22 10:12:20;;;;;;;23.30;16.13;;;;;;;6.42;94.63;103361.72;5242212;28;20056;-69
2022/01/22 10:15:10;;;;;;;18.83;14.43;;;;;;;6.39;94.20;103372.28;5243173;28;20373;-72
2022/01/22 10:17:50;;;;;;;19.52;16.13;;;;;;;6.40;94.66;103355.56;5241660;28;20033;-73
2022/01/22 10:20:21;;;;;;;21.10;15.95;;;;;;;6.36;94.31;103362.50;5240238;28;20022;-76
2022/01/22 10:22:56;;;;;;;20.63;16.20;;;;;;;6.42;94.36;103361.72;5242908;28;20084;-75
2022/01/22 10:25:44;;;;;;;20.50;11.82;;;;;;;6.46;93.85;103368.53;5241301;28;20025;-74
2022/01/22 10:28:22;;;;;;;20.23;16.85;;;;;;;6.53;94.20;103363.06;5242673;28;20017;-78
2022/01/22 10:31:00;;;;;;;23.98;16.02;;;;;;;6.52;93.88;103355.88;5242384;28;20108;-76
2022/01/22 10:33:35;;;;;;;18.85;16.10;;;;;;;6.42;93.70;103356.22;5241991;28;20045;-81
2022/01/22 10:36:19;;;;;;;21.40;15.00;;;;;;;6.45;93.80;103361.31;5243544;28;20116;-81
2022/01/22 10:38:52;;;;;;;21.42;15.45;;;;;;;6.30;93.99;103364.16;5224154;28;20470;-76
2022/01/22 10:41:42;;;;;;;22.25;16.88;;;;;;;6.44;94.06;103359.63;5243260;28;20028;-85
2022/01/22 10:44:18;;;;;;;23.85;17.00;;;;;;;6.34;93.98;103361.00;5244220;28;20038;-83
2022/01/22 10:47:02;;;;;;;25.23;16.52;;;;;;;6.33;93.89;103360.16;5242675;28;20037;-85
2022/01/22 10:49:33;;;;;;;26.65;18.98;;;;;;;6.48;94.63;103355.41;5242080;28;20111;-81
2022/01/22 10:52:07;;;;;;;26.88;18.85;;;;;;;6.56;94.38;103367.34;5241821;28;20525;-80
2022/01/22 10:54:39;;;;;;;31.42;17.33;;;;;;;6.42;93.63;103371.91;5240584;28;20021;-75
2022/01/22 10:57:25;;;;;;;22.42;15.30;;;;;;;6.59;94.79;103372.44;5240774;28;20045;-75
2022/01/22 10:59:56;;;;;;;23.75;17.15;;;;;;;6.45;94.67;103369.59;5242329;28;20056;-72
2022/01/22 11:02:38;;;;;;;23.60;16.17;;;;;;;6.70;96.24;103369.13;5240678;28;20057;-71
2022/01/22 11:05:29;;;;;;;26.20;18.27;;;;;;;6.57;94.83;103375.41;5240761;28;20029;-73
2022/01/22 11:08:08;;;;;;;23.48;18.20;;;;;;;6.60;94.44;103372.25;5240329;28;20101;-83
2022/01/22 11:10:44;;;;;;;28.15;15.77;;;;;;;6.92;95.17;103369.88;5241620;28;20026;-77
2022/01/22 11:13:15;;;;;;;20.90;18.45;;;;;;;6.74;93.76;103367.66;5241169;28;20119;-81
2022/01/22 11:15:50;;;;;;;24.83;16.67;;;;;;;6.70;93.23;103358.94;5240928;28;20041;-79
2022/01/22 11:18:22;;;;;;;21.13;17.65;;;;;;;6.66;93.27;103359.56;5241802;28;20326;-75
2022/01/22 11:20:53;;;;;;;21.13;17.67;;;;;;;6.63;93.18;103352.53;5241225;28;20039;-76
2022/01/22 11:23:25;;;;;;;38.53;23.80;;;;;;;6.60;92.87;103352.94;5240898;28;20381;-76
2022/01/22 11:25:56;;;;;;;24.40;17.15;;;;;;;6.63;92.82;103343.41;5241704;28;20029;-76
2022/01/22 11:28:28;;;;;;;22.58;16.88;;;;;;;6.63;92.64;103341.50;5240558;28;20057;-76
2022/01/22 11:31:01;;;;;;;32.78;19.48;;;;;;;6.61;92.49;103335.34;5241154;28;20095;-75
2022/01/22 11:33:35;;;;;;;25.75;18.95;;;;;;;6.62;93.43;103333.44;5240564;28;20029;-76
2022/01/22 11:36:26;;;;;;;25.90;18.27;;;;;;;6.61;93.37;103340.00;5240576;28;20034;-76
2022/01/22 11:39:00;;;;;;;23.83;18.42;;;;;;;6.63;92.97;103348.94;5241873;28;20029;-75
2022/01/22 11:41:32;;;;;;;22.05;18.40;;;;;;;6.55;92.96;103349.94;5241778;28;20127;-76
2022/01/22 11:44:11;;;;;;;27.73;20.70;;;;;;;6.60;93.13;103341.06;5240592;28;20393;-77
2022/01/22 11:46:58;;;;;;;21.90;18.73;;;;;;;6.60;92.79;103341.06;5240114;28;20025;-80
2022/01/22 11:49:31;;;;;;;26.65;20.30;;;;;;;6.57;92.51;103333.19;5240607;28;20037;-78
2022/01/22 11:52:11;;;;;;;24.90;21.45;;;;;;;6.53;93.54;103330.84;5240977;28;20056;-72
2022/01/22 11:54:55;;;;;;;24.00;20.52;;;;;;;6.64;93.42;103336.84;5239624;28;20033;-73
2022/01/22 11:57:30;;;;;;;25.67;20.83;;;;;;;6.51;92.53;103335.69;5239782;28;20041;-74
2022/01/22 12:00:20;;;;;;;27.03;19.97;;;;;;;6.60;93.14;103341.91;5240577;28;20029;-74
2022/01/22 12:03:07;;;;;;;47.72;33.33;;;;;;;6.66;93.10;103343.00;5220468;28;20269;-77
2022/01/22 12:05:53;;;;;;;30.02;22.00;;;;;;;6.61;92.73;103337.25;5234663;28;20033;-80
2022/01/22 12:08:25;;;;;;;29.50;20.88;;;;;;;6.49;92.77;103337.81;5240806;28;20034;-77
2022/01/22 12:16:39;;;;;;;27.70;21.95;;;;;;;6.51;93.83;103338.44;5241152;28;20021;-77
2022/01/22 12:19:46;;;;;;;31.23;23.52;;;;;;;6.50;93.86;103338.66;5240467;28;20029;-77
2022/01/22 12:22:30;;;;;;;34.97;21.48;;;;;;;6.39;93.77;103331.81;5233516;28;20534;-76
2022/01/22 12:25:21;;;;;;;32.65;23.63;;;;;;;6.45;94.13;103339.25;5219782;28;20454;-75
2022/01/22 12:27:54;;;;;;;26.52;21.30;;;;;;;6.48;94.42;103341.63;5219712;28;20030;-76
2022/01/22 12:30:43;;;;;;;28.13;21.33;;;;;;;6.58;94.40;103343.19;5220205;28;20054;-76
2022/01/22 12:33:35;;;;;;;27.58;21.08;;;;;;;6.65;94.25;103347.69;5231936;28;20033;-80
2022/01/22 12:36:22;;;;;;;29.35;22.25;;;;;;;6.53;93.76;103338.25;5241260;28;20425;-77
2022/01/22 12:39:09;;;;;;;26.25;22.38;;;;;;;6.56;93.75;103345.28;5240137;28;20112;-76
2022/01/22 12:44:28;;;;;;;32.67;27.75;;;;;;;6.44;94.54;103342.22;5241573;28;20481;-75
2022/01/22 12:47:03;;;;;;;30.98;21.55;;;;;;;6.47;94.48;103337.16;5243668;28;20335;-78
2022/01/22 12:49:36;;;;;;;26.02;19.70;;;;;;;6.65;94.74;103344.06;5243540;28;20381;-78
2022/01/22 12:52:10;;;;;;;34.08;24.50;;;;;;;6.52;94.00;103342.94;5244179;28;20033;-77
2022/01/22 12:54:46;;;;;;;24.15;21.55;;;;;;;6.56;94.48;103342.53;5243116;28;20049;-78
2022/01/22 12:57:19;;;;;;;73.82;55.10;;;;;;;6.56;94.16;103342.53;5243445;28;20065;-77
2022/01/22 13:00:03;;;;;;;31.13;23.25;;;;;;;6.40;94.25;103341.78;5243070;28;20100;-75
2022/01/22 13:02:55;;;;;;;32.05;22.30;;;;;;;6.55;95.07;103347.19;5243814;28;20104;-68
2022/01/22 13:05:29;;;;;;;29.63;21.15;;;;;;;6.43;94.25;103346.88;5233553;28;20468;-72
2022/01/22 13:08:02;;;;;;;31.88;21.45;;;;;;;6.46;94.50;103346.47;5242673;28;20138;-78
2022/01/22 13:10:43;;;;;;;32.97;23.35;;;;;;;6.55;94.95;103349.94;5242897;28;20029;-76
2022/01/22 13:13:18;;;;;;;29.60;21.02;;;;;;;6.59;94.39;103344.88;5243985;28;20080;-84
2022/01/22 13:16:05;;;;;;;38.00;29.13;;;;;;;6.57;94.12;103347.84;5247575;28;20033;-80
2022/01/22 13:18:43;;;;;;;36.63;29.02;;;;;;;6.60;94.84;103338.31;5247473;28;20291;-83
2022/01/22 13:21:16;;;;;;;30.52;22.48;;;;;;;6.64;94.93;103347.88;5244049;28;20037;-78
2022/01/22 13:24:04;;;;;;;28.83;22.50;;;;;;;6.70;94.09;103339.66;5240941;28;20099;-75
2022/01/22 13:26:55;;;;;;;32.85;22.40;;;;;;;6.61;93.57;103348.28;5243649;28;20030;-77
2022/01/22 13:29:39;;;;;;;27.25;21.08;;;;;;;6.52;93.65;103342.94;5240909;28;20536;-75
2022/01/22 13:32:27;;;;;;;28.77;24.17;;;;;;;6.39;93.96;103340.09;5243783;28;20040;-77
2022/01/22 13:45:03;;;;;;;29.10;22.88;;;;;;;6.46;94.07;103346.47;5243359;28;20029;-76
2022/01/22 13:49:39;;;;;;;29.50;21.73;;;;;;;6.55;93.84;103338.06;5242411;28;20113;-78
2022/01/22 13:52:13;;;;;;;31.30;22.55;;;;;;;6.52;93.05;103340.16;5243335;28;20073;-78
2022/01/22 13:54:48;;;;;;;44.65;31.70;;;;;;;6.62;93.15;103344.44;5242976;28;20503;-75
2022/01/22 13:57:24;;;;;;;28.37;23.23;;;;;;;6.53;92.64;103344.63;5241694;28;20041;-76
2022/01/22 13:59:57;;;;;;;29.27;21.73;;;;;;;6.59;91.85;103344.88;5226778;28;20295;-75
2022/01/22 14:02:50;;;;;;;29.02;23.33;;;;;;;6.49;92.15;103340.59;5241040;28;20022;-77
2022/01/22 14:05:26;;;;;;;27.65;22.33;;;;;;;6.45;91.86;103344.78;5242414;28;20064;-76
2022/01/22 14:08:00;;;;;;;29.77;21.92;;;;;;;6.43;91.75;103344.13;5243983;28;20473;-75
2022/01/22 14:10:34;;;;;;;31.27;22.55;;;;;;;6.48;91.50;103351.78;5242705;28;20124;-73
2022/01/22 14:13:11;;;;;;;35.17;28.67;;;;;;;6.44;91.41;103348.59;5242957;28;20021;-76
2022/01/22 14:15:45;;;;;;;27.65;22.88;;;;;;;6.45;91.46;103344.78;5245201;28;20060;-77
2022/01/22 14:18:27;;;;;;;29.17;22.33;;;;;;;6.40;91.75;103347.28;5243377;28;20031;-77
2022/01/22 14:21:12;;;;;;;26.90;22.02;;;;;;;6.44;91.61;103343.09;5245418;28;20025;-78
2022/01/22 14:23:44;;;;;;;29.42;24.02;;;;;;;6.35;91.97;103344.28;5245382;28;20029;-76
2022/01/22 14:26:32;;;;;;;24.80;22.00;;;;;;;6.52;91.50;103345.69;5244726;28;20486;-79
2022/01/22 14:29:10;;;;;;;26.10;22.83;;;;;;;6.51;91.41;103346.72;5243668;28;20036;-76
2022/01/22 14:31:47;;;;;;;31.83;25.10;;;;;;;6.60;91.16;103341.91;5242007;28;20041;-75
2022/01/22 14:34:33;;;;;;;27.65;22.90;;;;;;;6.66;90.97;103343.00;5242594;28;20056;-77
2022/01/22 14:37:06;;;;;;;54.67;42.70;;;;;;;6.99;94.34;103345.09;5241989;28;20469;-77
2022/01/22 14:45:32;;;;;;;28.33;22.50;;;;;;;6.85;89.76;103345.03;5238189;28;20095;-76
2022/01/22 14:48:06;;;;;;;25.75;21.60;;;;;;;6.72;89.51;103343.06;5228346;28;20389;-77
2022/01/22 14:50:37;;;;;;;30.35;22.13;;;;;;;6.83;90.00;103352.66;5227095;28;20366;-78
2022/01/22 14:53:10;;;;;;;22.77;20.42;;;;;;;6.86;90.39;103343.97;5223516;28;20037;-77
2022/01/22 14:55:59;;;;;;;26.58;20.50;;;;;;;6.84;89.73;103343.31;5221635;28;20026;-79
2022/01/22 14:58:30;;;;;;;24.48;20.50;;;;;;;7.07;91.76;103336.66;5221080;28;20120;-78
2022/01/22 15:01:02;;;;;;;23.30;20.42;;;;;;;7.17;91.00;103334.34;5220405;28;20529;-79
2022/01/22 15:03:33;;;;;;;27.75;21.95;;;;;;;6.73;88.64;103336.47;5240523;28;20112;-73
2022/01/22 15:06:05;;;;;;;29.95;23.13;;;;;;;6.65;89.05;103333.03;5240518;28;20497;-75
2022/01/22 15:08:36;;;;;;;27.42;22.15;;;;;;;6.78;89.47;103330.34;5240269;28;20477;-71
2022/01/22 15:11:07;;;;;;;26.60;21.92;;;;;;;6.69;89.84;103332.41;5240962;28;20033;-75
2022/01/22 15:13:39;;;;;;;27.95;23.08;;;;;;;6.51;89.94;103324.66;5240809;28;20716;-76
2022/01/22 15:16:16;;;;;;;38.20;30.15;;;;;;;6.60;89.65;103327.28;5253282;28;20017;-75
2022/01/22 15:18:51;;;;;;;25.85;23.05;;;;;;;6.53;89.95;103319.81;5241046;28;20037;-75
2022/01/22 15:21:22;;;;;;;;;;;;;;;6.59;90.01;103320.03;5241057;28;20031;-73
2022/01/22 15:23:54;;;;;;;29.33;22.63;;;;;;;6.45;90.03;103316.38;5240602;28;19925;-74
2022/01/22 15:26:26;;;;;;;24.58;21.20;;;;;;;6.55;90.22;103318.78;5241497;28;20032;-74
2022/01/22 15:28:57;;;;;;;29.95;24.80;;;;;;;6.45;89.50;103327.41;5240412;28;20022;-73
2022/01/22 15:31:34;;;;;;;26.20;23.27;;;;;;;6.40;89.92;103325.25;5241530;28;20032;-76
2022/01/22 15:34:14;;;;;;;29.13;25.10;;;;;;;6.37;89.78;103319.28;5240645;28;20022;-75
2022/01/22 15:36:46;;;;;;;26.70;22.08;;;;;;;6.59;90.26;103318.13;5239830;28;20112;-77
2022/01/22 15:39:19;;;;;;;87.22;71.00;;;;;;;6.64;89.85;103323.06;5240815;28;20029;-79
2022/01/22 15:41:53;;;;;;;28.67;23.65;;;;;;;6.49;88.64;103320.41;5229645;28;20423;-76
2022/01/22 15:44:25;;;;;;;27.37;21.80;;;;;;;6.88;90.13;103317.03;5228147;28;20029;-75
2022/01/22 15:46:56;;;;;;;27.15;22.45;;;;;;;6.54;88.91;103320.66;5227894;28;20041;-74
2022/01/22 15:49:28;;;;;;;24.20;20.58;;;;;;;6.69;89.01;103332.41;5240506;28;20084;-78
2022/01/22 15:52:00;;;;;;;38.58;23.60;;;;;;;6.52;88.61;103340.16;5240862;28;20086;-74
2022/01/22 15:54:32;;;;;;;25.42;21.90;;;;;;;6.59;88.33;103342.09;5241217;28;20049;-75
2022/01/22 15:57:07;;;;;;;25.13;22.13;;;;;;;6.36;87.90;103354.25;5238331;28;20162;-76
2022/01/22 15:59:38;;;;;;;26.40;22.45;;;;;;;6.43;88.02;103352.41;5239863;28;20037;-73
2022/01/22 16:02:10;;;;;;;28.10;24.55;;;;;;;6.35;88.11;103354.47;5239070;28;20146;-74
2022/01/22 16:04:48;;;;;;;29.90;23.63;;;;;;;6.28;88.50;103359.91;5239208;28;20029;-74
2022/01/22 16:07:23;;;;;;;24.52;21.30;;;;;;;6.02;88.95;103355.03;5239438;28;20036;-74
2022/01/22 16:09:55;;;;;;;26.90;21.67;;;;;;;6.10;89.07;103358.47;5239586;28;20087;-75
2022/01/22 16:12:28;;;;;;;26.92;22.40;;;;;;;6.02;88.51;103363.28;5238581;28;20048;-76
2022/01/22 16:15:00;;;;;;;26.27;22.02;;;;;;;5.98;89.14;103362.84;5239996;28;20033;-75
2022/01/22 16:17:31;;;;;;;27.15;22.42;;;;;;;5.89;89.23;103361.22;5240213;28;20362;-74
2022/01/22 16:20:03;;;;;;;27.55;22.15;;;;;;;5.83;89.29;103357.38;5243834;28;20033;-74
2022/01/22 16:22:35;;;;;;;27.58;24.63;;;;;;;5.96;89.62;103358.59;5244409;28;20057;-74
2022/01/22 16:25:06;;;;;;;27.70;23.55;;;;;;;5.95;89.36;103357.72;5242401;28;20053;-73
2022/01/22 16:27:40;;;;;;;30.58;22.58;;;;;;;6.06;89.39;103357.19;5244637;28;20477;-74
2022/01/22 16:30:11;;;;;;;27.80;23.33;;;;;;;6.08;89.64;103355.09;5243715;28;20021;-74
2022/01/22 16:32:42;;;;;;;30.52;24.60;;;;;;;6.16;88.93;103367.88;5242220;28;20033;-74
2022/01/22 16:35:14;;;;;;;25.10;22.05;;;;;;;5.95;88.51;103381.66;5243511;28;20022;-75
2022/01/22 16:37:46;;;;;;;27.60;23.40;;;;;;;5.88;89.31;103365.91;5242457;28;20034;-71
2022/01/22 16:40:23;;;;;;;25.30;21.48;;;;;;;6.04;89.57;103363.97;5240522;28;20029;-74
2022/01/22 16:43:01;;;;;;;30.40;23.15;;;;;;;6.06;89.90;103373.72;5240416;28;20022;-73
2022/01/22 16:56:55;;;;;;;24.20;21.30;;;;;;;6.17;88.42;103374.25;5243837;28;20117;-71
2022/01/22 16:59:26;;;;;;;24.52;21.42;;;;;;;6.16;88.40;103376.16;5236249;28;20026;-72
2022/01/22 17:02:01;;;;;;;25.80;21.33;;;;;;;6.18;88.26;103381.44;5233426;28;20048;-74
2022/01/22 17:04:39;;;;;;;29.33;22.17;;;;;;;6.31;88.39;103379.66;5244070;28;20025;-74
2022/01/22 17:07:19;;;;;;;22.25;19.77;;;;;;;6.24;88.47;103380.66;5243437;28;20021;-73
2022/01/22 17:15:12;;;;;;;23.65;20.13;;;;;;;6.27;88.37;103383.03;5261430;28;20033;-73
2022/01/22 17:17:43;;;;;;;27.83;23.80;;;;;;;6.30;88.41;103386.22;5263674;28;20104;-73
2022/01/22 17:20:16;;;;;;;25.48;20.27;;;;;;;6.13;88.57;103390.31;5242978;28;20033;-72
2022/01/22 17:22:47;;;;;;;24.50;20.27;;;;;;;6.20;88.37;103396.72;5243530;28;20057;-72
2022/01/22 17:25:19;;;;;;;28.95;20.83;;;;;;;6.20;88.65;103393.13;5243437;28;20053;-73
2022/01/22 17:27:50;;;;;;;23.80;21.30;;;;;;;6.30;88.52;103393.66;5243296;28;20048;-73
2022/01/22 17:30:21;;;;;;;25.77;21.58;;;;;;;6.30;88.52;103396.41;5243648;28;20120;-72
